createdAt,value
2018-04-19T00:01:15.926Z,42.40
2018-04-19T00:03:43.389Z,41.80
2018-04-19T00:06:10.847Z,41.80
2018-04-19T00:08:38.294Z,41.90
2018-04-19T00:11:06.525Z,42.10
2018-04-19T00:13:33.992Z,42.10
2018-04-19T00:16:01.476Z,42.00
2018-04-19T00:18:28.930Z,42.40
2018-04-19T00:20:56.368Z,42.30
2018-04-19T00:23:23.824Z,42.40
2018-04-19T00:25:51.282Z,42.20
2018-04-19T00:28:18.759Z,42.40
2018-04-19T00:30:46.215Z,42.60
2018-04-19T00:33:14.440Z,42.20
2018-04-19T00:35:41.893Z,42.20
2018-04-19T00:38:09.371Z,42.20
2018-04-19T00:40:36.867Z,42.40
2018-04-19T00:43:04.326Z,42.50
2018-04-19T00:45:31.781Z,42.60
2018-04-19T00:47:59.231Z,42.80
2018-04-19T00:50:27.506Z,42.30
2018-04-19T00:53:07.611Z,42.50
2018-04-19T00:55:35.090Z,42.40
2018-04-19T00:58:02.580Z,42.40
2018-04-19T01:00:30.047Z,42.50
2018-04-19T01:02:58.314Z,42.60
2018-04-19T01:05:26.539Z,42.70
2018-04-19T01:07:54.012Z,42.60
2018-04-19T01:10:21.526Z,42.60
2018-04-19T01:12:49.001Z,42.50
2018-04-19T01:15:16.440Z,42.80
2018-04-19T01:17:43.889Z,42.50
2018-04-19T01:20:12.107Z,42.70
2018-04-19T01:22:39.569Z,42.70
2018-04-19T01:25:07.034Z,43.00
2018-04-19T01:27:34.510Z,42.70
2018-04-19T01:30:01.969Z,42.70
2018-04-19T01:32:29.427Z,42.60
2018-04-19T01:34:56.890Z,43.00
2018-04-19T01:37:24.362Z,43.10
2018-04-19T01:39:52.584Z,44.00
2018-04-19T01:42:20.054Z,43.90
2018-04-19T01:44:48.267Z,42.80
2018-04-19T01:47:15.715Z,42.80
2018-04-19T01:49:43.171Z,43.10
2018-04-19T01:52:10.666Z,44.00
2018-04-19T01:54:38.145Z,44.30
2018-04-19T01:57:05.581Z,44.60
2018-04-19T01:59:33.043Z,44.60
2018-04-19T02:02:00.480Z,45.10
2018-04-19T02:04:27.952Z,45.10
2018-04-19T02:06:55.459Z,45.40
2018-04-19T02:09:22.918Z,45.80
2018-04-19T02:11:50.371Z,46.20
2018-04-19T02:14:17.828Z,45.70
2018-04-19T02:16:45.288Z,45.90
2018-04-19T02:19:13.599Z,46.50
2018-04-19T02:21:41.042Z,46.50
2018-04-19T02:24:08.523Z,47.20
2018-04-19T02:26:35.957Z,46.60
2018-04-19T02:29:03.407Z,47.00
2018-04-19T02:31:31.656Z,47.50
2018-04-19T02:33:59.126Z,47.40
2018-04-19T02:36:26.595Z,47.50
2018-04-19T02:38:54.343Z,48.30
2018-04-19T02:41:21.803Z,47.50
2018-04-19T02:43:49.282Z,47.60
2018-04-19T02:46:16.732Z,48.00
2018-04-19T02:48:44.222Z,48.40
2018-04-19T02:51:11.731Z,49.30
2018-04-19T02:53:39.959Z,48.90
2018-04-19T02:56:07.413Z,48.90
2018-04-19T02:58:34.870Z,49.10
2018-04-19T03:01:02.327Z,49.10
2018-04-19T03:03:30.568Z,49.40
2018-04-19T03:05:58.006Z,49.30
2018-04-19T03:08:25.466Z,49.00
2018-04-19T03:10:52.927Z,49.60
2018-04-19T03:13:20.410Z,49.60
2018-04-19T03:15:47.888Z,49.70
2018-04-19T03:18:15.344Z,49.40
2018-04-19T03:20:43.574Z,48.70
2018-04-19T03:23:11.038Z,48.70
2018-04-19T03:25:40.175Z,49.30
2018-04-19T03:28:07.631Z,49.30
2018-04-19T03:30:35.087Z,49.60
2018-04-19T03:33:02.619Z,49.50
2018-04-19T03:35:30.126Z,49.60
2018-04-19T03:37:57.567Z,49.50
2018-04-19T03:40:25.023Z,49.30
2018-04-19T03:42:52.487Z,50.10
2018-04-19T03:45:19.954Z,49.60
2018-04-19T03:47:47.411Z,49.40
2018-04-19T03:50:15.663Z,49.30
2018-04-19T03:52:43.127Z,49.30
2018-04-19T03:55:11.354Z,49.60
2018-04-19T03:57:38.810Z,49.60
2018-04-19T04:00:07.066Z,50.50
2018-04-19T04:02:34.583Z,50.50
2018-04-19T04:05:02.050Z,50.80
2018-04-19T04:07:29.505Z,51.10
2018-04-19T04:09:56.959Z,51.80
2018-04-19T04:12:25.194Z,52.50
2018-04-19T04:14:52.651Z,52.50
2018-04-19T04:17:32.784Z,52.60
2018-04-19T04:23:24.298Z,52.50
2018-04-19T04:25:51.758Z,52.50
2018-04-19T04:28:20.003Z,53.20
2018-04-19T04:30:47.444Z,53.30
2018-04-19T04:33:15.750Z,53.40
2018-04-19T04:35:43.205Z,53.80
2018-04-19T04:38:10.670Z,54.10
2018-04-19T04:40:38.160Z,53.60
2018-04-19T04:43:06.405Z,53.40
2018-04-19T04:45:34.622Z,53.10
2018-04-19T04:48:02.070Z,53.10
2018-04-19T04:50:29.526Z,52.90
2018-04-19T04:52:57.011Z,53.20
2018-04-19T04:55:24.512Z,53.40
2018-04-19T04:57:51.970Z,53.40
2018-04-19T05:00:19.473Z,53.10
2018-04-19T05:02:46.906Z,53.10
2018-04-19T05:05:14.374Z,52.50
2018-04-19T05:07:41.827Z,52.30
2018-04-19T05:10:09.307Z,51.90
2018-04-19T05:12:37.534Z,51.50
2018-04-19T05:15:05.006Z,51.50
2018-04-19T05:17:33.263Z,51.30
2018-04-19T05:20:00.762Z,51.30
2018-04-19T05:22:28.207Z,51.70
2018-04-19T05:24:55.670Z,50.50
2018-04-19T05:27:23.125Z,50.40
2018-04-19T05:29:51.291Z,50.10
2018-04-19T05:32:19.210Z,49.60
2018-04-19T05:34:46.718Z,49.80
2018-04-19T05:37:15.005Z,49.40
2018-04-19T05:39:42.606Z,49.40
2018-04-19T05:42:10.064Z,49.30
2018-04-19T05:44:37.534Z,49.00
2018-04-19T05:47:05.012Z,48.50
2018-04-19T05:49:32.487Z,47.80
2018-04-19T05:51:59.956Z,47.40
2018-04-19T05:54:27.465Z,47.20
2018-04-19T05:56:54.961Z,47.40
2018-04-19T05:59:22.418Z,47.50
2018-04-19T06:01:49.878Z,46.20
2018-04-19T06:04:18.130Z,45.40
2018-04-19T06:06:45.607Z,45.40
2018-04-19T06:09:13.832Z,45.50
2018-04-19T06:11:41.335Z,45.30
2018-04-19T06:14:08.786Z,44.70
2018-04-19T06:16:36.259Z,44.40
2018-04-19T06:19:03.744Z,44.20
2018-04-19T06:21:31.975Z,42.80
2018-04-19T06:23:59.439Z,42.80
2018-04-19T06:26:27.665Z,40.90
2018-04-19T06:28:55.109Z,40.90
2018-04-19T06:31:22.564Z,40.90
2018-04-19T06:33:50.002Z,39.20
2018-04-19T06:36:17.450Z,38.30
2018-04-19T06:38:44.919Z,38.60
2018-04-19T06:41:12.451Z,38.40
2018-04-19T06:43:41.110Z,37.40
2018-04-19T06:46:08.579Z,37.30
2018-04-19T06:48:36.787Z,35.90
2018-04-19T06:51:04.258Z,35.90
2018-04-19T06:53:31.715Z,35.10
2018-04-19T06:55:59.180Z,34.60
2018-04-19T06:58:26.636Z,34.80
2018-04-19T07:00:54.470Z,35.20
2018-04-19T07:03:22.665Z,32.90
2018-04-19T07:05:50.133Z,32.90
2018-04-19T07:08:17.645Z,32.70
2018-04-19T07:10:45.149Z,31.70
2018-04-19T07:13:12.612Z,32.20
2018-04-19T07:15:40.136Z,31.90
2018-04-19T07:18:08.347Z,31.50
2018-04-19T07:20:35.800Z,31.50
2018-04-19T07:23:03.304Z,32.20
2018-04-19T07:25:30.716Z,31.80
2018-04-19T07:27:58.169Z,31.60
2018-04-19T07:30:25.639Z,31.40
2018-04-19T07:32:53.083Z,31.50
2018-04-19T07:35:20.540Z,31.40
2018-04-19T07:37:47.996Z,31.00
2018-04-19T07:40:15.458Z,31.40
2018-04-19T07:42:42.910Z,30.00
2018-04-19T07:45:10.366Z,30.30
2018-04-19T07:47:38.592Z,30.20
2018-04-19T07:50:06.054Z,30.30
2018-04-19T07:52:33.524Z,30.60
2018-04-19T07:55:01.013Z,30.20
2018-04-19T07:57:28.471Z,30.00
2018-04-19T07:59:55.930Z,30.20
2018-04-19T08:02:24.171Z,30.50
2018-04-19T08:04:51.630Z,30.40
2018-04-19T08:07:19.090Z,30.10
2018-04-19T08:09:47.342Z,30.00
2018-04-19T08:12:14.787Z,30.00
2018-04-19T08:14:42.267Z,29.90
2018-04-19T08:17:09.720Z,29.40
2018-04-19T08:19:37.174Z,29.90
2018-04-19T08:22:04.649Z,29.60
2018-04-19T08:24:32.121Z,29.70
2018-04-19T08:27:01.327Z,30.00
2018-04-19T08:29:28.799Z,29.10
2018-04-19T08:31:56.244Z,29.70
2018-04-19T08:34:23.674Z,29.40
2018-04-19T08:36:51.152Z,29.50
2018-04-19T08:39:18.820Z,29.20
2018-04-19T08:41:47.035Z,29.40
2018-04-19T08:44:14.490Z,29.30
2018-04-19T08:46:41.955Z,29.90
2018-04-19T08:49:09.413Z,28.70
2018-04-19T08:51:37.617Z,28.80
2018-04-19T08:54:05.080Z,28.80
2018-04-19T08:56:32.649Z,28.30
2018-04-19T08:59:00.127Z,28.20
2018-04-19T09:01:27.588Z,28.00
2018-04-19T09:03:55.043Z,28.00
2018-04-19T09:06:22.502Z,27.80
2018-04-19T09:08:49.960Z,27.70
2018-04-19T09:11:17.444Z,27.10
2018-04-19T09:13:44.894Z,27.60
2018-04-19T09:16:12.366Z,27.50
2018-04-19T09:18:39.807Z,27.60
2018-04-19T09:21:07.275Z,27.70
2018-04-19T09:23:35.235Z,27.50
2018-04-19T09:26:03.499Z,28.10
2018-04-19T09:28:30.974Z,27.80
2018-04-19T09:30:58.437Z,27.70
2018-04-19T09:33:25.883Z,27.10
2018-04-19T09:35:53.350Z,26.60
2018-04-19T09:38:20.811Z,26.60
2018-04-19T09:40:48.274Z,27.20
2018-04-19T09:43:15.734Z,27.10
2018-04-19T09:45:43.281Z,25.60
2018-04-19T09:48:10.783Z,25.60
2018-04-19T09:50:38.243Z,25.60
2018-04-19T09:53:05.703Z,26.20
2018-04-19T09:55:33.159Z,25.50
2018-04-19T09:58:08.300Z,25.80
2018-04-19T10:00:41.380Z,25.10
2018-04-19T10:03:23.394Z,25.40
2018-04-19T10:05:57.238Z,26.50
2018-04-19T10:08:24.711Z,26.40
2018-04-19T10:10:52.197Z,26.30
2018-04-19T10:13:19.671Z,26.60
2018-04-19T10:15:47.125Z,25.50
2018-04-19T10:18:14.744Z,25.20
2018-04-19T10:20:42.197Z,25.00
2018-04-19T10:23:09.688Z,24.20
2018-04-19T10:25:37.146Z,23.90
2018-04-19T10:28:04.663Z,23.70
2018-04-19T10:30:32.120Z,23.70
2018-04-19T10:32:59.577Z,23.40
2018-04-19T10:35:27.849Z,24.30
2018-04-19T10:37:56.123Z,23.60
2018-04-19T10:40:23.573Z,23.70
2018-04-19T10:42:51.035Z,23.30
2018-04-19T10:45:19.406Z,23.80
2018-04-19T10:47:46.876Z,23.50
2018-04-19T10:50:14.332Z,23.80
2018-04-19T10:52:41.782Z,23.20
2018-04-19T10:55:10.005Z,25.40
2018-04-19T10:57:37.468Z,25.50
2018-04-19T11:00:04.933Z,25.80
2018-04-19T11:02:33.178Z,25.90
2018-04-19T11:05:00.627Z,25.90
2018-04-19T11:07:28.834Z,25.50
2018-04-19T11:09:56.290Z,25.50
2018-04-19T11:12:23.742Z,25.70
2018-04-19T11:14:51.195Z,24.90
2018-04-19T11:17:18.665Z,23.70
2018-04-19T11:19:46.154Z,23.40
2018-04-19T11:22:13.619Z,24.00
2018-04-19T11:24:41.604Z,22.90
2018-04-19T11:27:09.063Z,23.30
2018-04-19T11:29:36.505Z,22.50
2018-04-19T11:32:03.975Z,22.30
2018-04-19T11:34:31.436Z,23.30
2018-04-19T11:36:58.869Z,21.40
2018-04-19T11:39:26.327Z,22.00
2018-04-19T11:41:53.783Z,22.30
2018-04-19T11:44:21.260Z,22.50
2018-04-19T11:46:48.720Z,23.10
2018-04-19T11:49:16.992Z,23.50
2018-04-19T11:51:44.458Z,22.50
2018-04-19T11:54:11.915Z,22.40
2018-04-19T11:56:39.400Z,23.20
2018-04-19T11:59:06.854Z,24.20
2018-04-19T12:01:34.369Z,23.90
2018-04-19T12:04:02.591Z,24.90
2018-04-19T12:06:30.817Z,23.70
2018-04-19T12:08:58.314Z,23.70
2018-04-19T12:11:26.342Z,22.20
2018-04-19T12:13:53.806Z,23.80
2018-04-19T12:16:21.258Z,24.10
2018-04-19T12:18:48.717Z,23.10
2018-04-19T12:21:16.180Z,23.10
2018-04-19T12:23:43.631Z,22.90
2018-04-19T12:26:11.094Z,22.70
2018-04-19T12:28:38.547Z,22.80
2018-04-19T12:31:06.005Z,22.90
2018-04-19T12:33:33.460Z,22.40
2018-04-19T12:36:01.278Z,22.20
2018-04-19T12:38:29.624Z,22.30
2018-04-19T12:40:57.066Z,22.50
2018-04-19T12:43:24.540Z,21.90
2018-04-19T12:45:51.991Z,21.90
2018-04-19T12:48:19.470Z,21.60
2018-04-19T12:50:46.922Z,20.50
2018-04-19T12:53:14.436Z,21.10
2018-04-19T12:55:41.877Z,21.60
2018-04-19T12:58:09.303Z,21.50
2018-04-19T13:00:36.758Z,22.20
2018-04-19T13:03:04.221Z,23.10
2018-04-19T13:05:31.664Z,23.30
2018-04-19T13:07:59.898Z,23.10
2018-04-19T13:10:27.364Z,23.10
2018-04-19T13:12:55.619Z,24.10
2018-04-19T13:15:23.046Z,24.00
2018-04-19T13:17:50.497Z,23.80
2018-04-19T13:20:17.945Z,24.50
2018-04-19T13:22:45.397Z,24.30
2018-04-19T13:25:13.633Z,24.40
2018-04-19T13:27:42.050Z,24.40
2018-04-19T13:30:09.535Z,24.20
2018-04-19T13:32:36.992Z,24.20
2018-04-19T13:35:04.448Z,24.40
2018-04-19T13:37:32.730Z,24.10
2018-04-19T13:40:00.198Z,24.10
2018-04-19T13:42:27.637Z,24.30
2018-04-19T13:44:55.099Z,24.10
2018-04-19T13:47:22.643Z,23.90
2018-04-19T13:49:50.111Z,23.10
2018-04-19T13:52:17.572Z,23.60
2018-04-19T13:54:45.028Z,23.80
2018-04-19T13:57:15.322Z,23.40
2018-04-19T13:59:42.804Z,22.60
2018-04-19T14:02:10.320Z,23.10
2018-04-19T14:04:37.777Z,23.10
2018-04-19T14:07:05.254Z,23.10
2018-04-19T14:09:32.733Z,22.90
2018-04-19T14:12:00.192Z,22.90
2018-04-19T14:14:28.910Z,23.50
2018-04-19T14:16:56.341Z,23.40
2018-04-19T14:19:23.848Z,23.70
2018-04-19T14:21:51.309Z,23.30
2018-04-19T14:24:18.774Z,23.00
2018-04-19T14:26:46.316Z,22.80
2018-04-19T14:29:13.824Z,23.20
2018-04-19T14:31:41.386Z,23.10
2018-04-19T14:34:08.893Z,22.70
2018-04-19T14:36:36.404Z,22.30
2018-04-19T14:39:03.892Z,22.10
2018-04-19T14:41:31.340Z,22.50
2018-04-19T14:43:59.584Z,22.50
2018-04-19T14:46:27.046Z,22.00
2018-04-19T14:48:55.268Z,21.60
2018-04-19T14:51:23.206Z,21.60
2018-04-19T14:53:51.469Z,22.20
2018-04-19T14:56:18.935Z,22.40
2018-04-19T14:58:47.431Z,22.30
2018-04-19T15:01:14.986Z,22.30
2018-04-19T15:03:42.430Z,21.70
2018-04-19T15:06:10.663Z,22.20
2018-04-19T15:08:38.131Z,22.10
2018-04-19T15:11:06.361Z,21.90
2018-04-19T15:13:33.808Z,21.90
2018-04-19T15:16:01.258Z,21.90
2018-04-19T15:18:28.702Z,21.60
2018-04-19T15:20:56.784Z,22.00
2018-04-19T15:23:24.248Z,21.90
2018-04-19T15:25:51.738Z,21.70
2018-04-19T15:28:19.187Z,20.90
2018-04-19T15:30:46.636Z,21.00
2018-04-19T15:33:14.070Z,20.90
2018-04-19T15:35:41.514Z,21.00
2018-04-19T15:38:08.985Z,21.00
2018-04-19T15:40:37.189Z,20.70
2018-04-19T15:43:05.341Z,20.70
2018-04-19T15:45:32.812Z,20.60
2018-04-19T15:48:00.346Z,20.60
2018-04-19T15:50:27.884Z,21.20
2018-04-19T15:52:55.341Z,20.60
2018-04-19T15:55:23.592Z,20.10
2018-04-19T15:57:51.072Z,19.90
2018-04-19T16:00:19.295Z,19.30
2018-04-19T16:02:46.738Z,19.30
2018-04-19T16:05:14.176Z,19.40
2018-04-19T16:07:42.021Z,19.00
2018-04-19T16:10:09.463Z,19.30
2018-04-19T16:12:36.921Z,19.60
2018-04-19T16:15:04.426Z,19.50
2018-04-19T16:17:31.900Z,19.70
2018-04-19T16:19:59.323Z,19.80
2018-04-19T16:22:26.770Z,19.80
2018-04-19T16:24:54.292Z,19.40
2018-04-19T16:27:21.783Z,19.70
2018-04-19T16:29:49.242Z,19.80
2018-04-19T16:32:16.694Z,19.50
2018-04-19T16:34:44.180Z,19.70
2018-04-19T16:37:11.683Z,19.30
2018-04-19T16:39:39.885Z,19.70
2018-04-19T16:42:07.376Z,19.60
2018-04-19T16:44:34.806Z,19.30
2018-04-19T16:47:02.300Z,19.20
2018-04-19T16:49:31.757Z,19.70
2018-04-19T16:51:59.212Z,19.60
2018-04-19T16:54:26.682Z,20.00
2018-04-19T16:56:54.259Z,19.80
2018-04-19T16:59:21.764Z,20.20
2018-04-19T17:01:49.213Z,20.30
2018-04-19T17:04:16.656Z,19.80
2018-04-19T17:06:44.113Z,20.00
2018-04-19T17:09:11.611Z,20.30
2018-04-19T17:11:39.078Z,20.20
2018-04-19T17:14:06.534Z,20.60
2018-04-19T17:16:34.011Z,20.90
2018-04-19T17:19:02.219Z,21.40
2018-04-19T17:21:29.695Z,21.40
2018-04-19T17:23:57.153Z,21.50
2018-04-19T17:26:24.589Z,21.70
2018-04-19T17:28:52.068Z,21.70
2018-04-19T17:31:19.555Z,22.00
2018-04-19T17:33:47.056Z,21.60
2018-04-19T17:36:14.522Z,21.60
2018-04-19T17:38:41.993Z,21.50
2018-04-19T17:41:09.444Z,21.70
2018-04-19T17:43:36.901Z,21.80
2018-04-19T17:46:04.420Z,22.10
2018-04-19T17:48:31.860Z,22.80
2018-04-19T17:50:59.301Z,22.20
2018-04-19T17:53:27.783Z,22.40
2018-04-19T17:55:55.213Z,22.50
2018-04-19T17:58:22.670Z,22.70
2018-04-19T18:00:50.120Z,22.80
2018-04-19T18:03:18.351Z,22.70
2018-04-19T18:05:45.812Z,22.70
2018-04-19T18:08:13.266Z,22.90
2018-04-19T18:10:41.474Z,23.20
2018-04-19T18:13:09.102Z,23.20
2018-04-19T18:15:37.191Z,23.40
2018-04-19T18:18:04.675Z,23.40
2018-04-19T18:20:32.101Z,23.50
2018-04-19T18:22:59.598Z,23.70
2018-04-19T18:25:26.982Z,24.00
2018-04-19T18:27:54.503Z,23.90
2018-04-19T18:30:21.912Z,24.00
2018-04-19T18:32:49.372Z,24.00
2018-04-19T18:35:16.831Z,24.50
2018-04-19T18:37:44.270Z,24.60
2018-04-19T18:40:11.878Z,24.50
2018-04-19T18:42:40.666Z,24.70
2018-04-19T18:45:09.774Z,24.70
2018-04-19T18:47:37.826Z,24.80
2018-04-19T18:50:07.151Z,25.10
2018-04-19T18:52:34.915Z,24.90
2018-04-19T18:55:03.162Z,25.20
2018-04-19T18:57:30.619Z,25.20
2018-04-19T18:59:58.847Z,25.50
2018-04-19T19:02:27.072Z,25.40
2018-04-19T19:04:54.785Z,25.50
2018-04-19T19:07:22.256Z,25.70
2018-04-19T19:09:49.721Z,25.60
2018-04-19T19:12:17.193Z,25.90
2018-04-19T19:14:44.654Z,25.70
2018-04-19T19:17:23.723Z,25.90
2018-04-19T19:20:03.023Z,26.00
2018-04-19T19:22:30.492Z,26.80
2018-04-19T19:24:57.965Z,27.10
2018-04-19T19:27:25.417Z,26.90
2018-04-19T19:29:53.643Z,26.90
2018-04-19T19:32:21.098Z,26.90
2018-04-19T19:34:48.551Z,26.90
2018-04-19T19:37:17.041Z,27.70
2018-04-19T19:39:45.262Z,27.20
2018-04-19T19:42:12.747Z,27.00
2018-04-19T19:44:40.952Z,27.40
2018-04-19T19:47:08.398Z,27.40
2018-04-19T19:49:35.887Z,27.70
2018-04-19T19:52:03.326Z,28.40
2018-04-19T19:54:30.808Z,28.60
2018-04-19T19:56:58.238Z,29.00
2018-04-19T19:59:25.718Z,29.00
2018-04-19T20:01:53.159Z,29.00
2018-04-19T20:04:21.403Z,29.00
2018-04-19T20:06:48.849Z,29.00
2018-04-19T20:09:16.389Z,28.80
2018-04-19T20:11:43.850Z,29.50
2018-04-19T20:14:11.340Z,30.00
2018-04-19T20:16:39.542Z,30.70
2018-04-19T20:19:07.083Z,30.70
2018-04-19T20:21:34.539Z,30.20
2018-04-19T20:24:02.052Z,30.60
2018-04-19T20:26:29.543Z,30.50
2018-04-19T20:28:57.014Z,30.40
2018-04-19T20:31:24.467Z,31.20
2018-04-19T20:33:52.795Z,31.30
2018-04-19T20:36:21.019Z,31.30
2018-04-19T20:38:48.485Z,31.30
2018-04-19T20:41:15.935Z,31.40
2018-04-19T20:43:43.379Z,31.80
2018-04-19T20:46:10.855Z,31.80
2018-04-19T20:48:38.312Z,32.40
2018-04-19T20:51:05.768Z,32.40
2018-04-19T20:53:33.234Z,32.40
2018-04-19T20:56:00.682Z,31.50
2018-04-19T20:58:28.143Z,31.70
2018-04-19T21:00:56.187Z,32.20
2018-04-19T21:03:23.678Z,32.10
2018-04-19T21:05:51.144Z,32.70
2018-04-19T21:08:18.590Z,32.60
2018-04-19T21:10:46.035Z,33.10
2018-04-19T21:13:13.544Z,33.30
2018-04-19T21:15:41.012Z,33.70
2018-04-19T21:18:08.468Z,34.40
2018-04-19T21:20:35.946Z,33.50
2018-04-19T21:23:03.434Z,33.40
2018-04-19T21:25:31.022Z,33.40
2018-04-19T21:27:58.453Z,34.90
2018-04-19T21:30:26.678Z,34.60
2018-04-19T21:32:54.174Z,34.60
2018-04-19T21:35:21.640Z,35.00
2018-04-19T21:37:49.082Z,34.90
2018-04-19T21:40:16.538Z,35.10
2018-04-19T21:42:44.743Z,34.90
2018-04-19T21:45:12.194Z,34.90
2018-04-19T21:47:39.626Z,35.30
2018-04-19T21:50:07.105Z,35.90
2018-04-19T21:52:34.544Z,36.10
2018-04-19T21:55:02.024Z,36.30
2018-04-19T21:57:30.266Z,37.50
2018-04-19T21:59:57.750Z,37.50
2018-04-19T22:02:25.191Z,37.40
2018-04-19T22:04:52.660Z,37.50
2018-04-19T22:07:20.106Z,37.80
2018-04-19T22:09:47.646Z,37.30
2018-04-19T22:12:15.646Z,37.70
2018-04-19T22:14:43.892Z,38.60
2018-04-19T22:17:11.353Z,38.60
2018-04-19T22:19:40.160Z,38.50
2018-04-19T22:22:07.615Z,38.50
2018-04-19T22:24:35.075Z,38.70
2018-04-19T22:27:03.320Z,39.40
2018-04-19T22:29:30.845Z,39.40
2018-04-19T22:31:58.264Z,39.50
2018-04-19T22:34:25.718Z,39.40
2018-04-19T22:36:53.182Z,39.50
2018-04-19T22:39:20.642Z,39.80
2018-04-19T22:41:48.143Z,39.80
2018-04-19T22:44:16.363Z,40.10
2018-04-19T22:46:43.823Z,40.10
2018-04-19T22:49:11.281Z,40.10
2018-04-19T22:51:39.547Z,40.40
2018-04-19T22:54:07.002Z,40.40
2018-04-19T22:56:34.467Z,40.60
2018-04-19T22:59:01.913Z,40.90
2018-04-19T23:01:29.372Z,41.10
2018-04-19T23:03:56.887Z,41.40
2018-04-19T23:06:24.347Z,41.30
2018-04-19T23:08:51.862Z,41.40
2018-04-19T23:11:19.310Z,41.20
2018-04-19T23:13:46.783Z,40.30
2018-04-19T23:16:14.227Z,40.70
2018-04-19T23:18:41.678Z,40.70
2018-04-19T23:21:09.133Z,40.70
2018-04-19T23:23:36.594Z,40.60
2018-04-19T23:26:04.053Z,40.40
2018-04-19T23:28:31.506Z,39.80
2018-04-19T23:30:58.958Z,39.80
2018-04-19T23:33:26.406Z,40.30
2018-04-19T23:35:53.868Z,39.70
2018-04-19T23:38:21.326Z,39.70
2018-04-19T23:40:48.798Z,39.30
2018-04-19T23:43:17.019Z,40.40
2018-04-19T23:45:44.475Z,40.30
2018-04-19T23:48:11.931Z,40.90
2018-04-19T23:50:39.370Z,40.70
2018-04-19T23:53:06.843Z,40.90
2018-04-19T23:55:35.121Z,42.00
2018-04-19T23:58:02.541Z,41.30
